createdAt,value
2022-12-29T00:01:12.251Z,1.60
2022-12-29T00:03:43.326Z,1.60
2022-12-29T00:06:11.671Z,1.60
2022-12-29T00:08:42.535Z,1.70
2022-12-29T00:11:11.803Z,1.60
2022-12-29T00:14:01.042Z,1.70
2022-12-29T00:16:29.853Z,1.70
2022-12-29T00:18:58.010Z,1.70
2022-12-29T00:21:44.282Z,1.70
2022-12-29T00:24:32.731Z,1.70
2022-12-29T00:27:25.795Z,1.70
2022-12-29T00:30:18.116Z,1.70
2022-12-29T00:33:03.728Z,1.80
2022-12-29T00:35:36.133Z,1.80
2022-12-29T00:38:24.801Z,1.80
2022-12-29T00:41:10.459Z,1.80
2022-12-29T00:43:56.413Z,1.80
2022-12-29T00:46:25.856Z,1.80
2022-12-29T00:49:11.119Z,1.80
2022-12-29T00:51:39.128Z,1.90
2022-12-29T00:54:07.115Z,1.80
2022-12-29T00:56:35.358Z,1.90
2022-12-29T00:59:03.923Z,1.80
2022-12-29T01:01:33.717Z,1.80
2022-12-29T01:04:04.017Z,1.80
2022-12-29T01:06:32.803Z,1.80
2022-12-29T01:09:19.139Z,1.80
2022-12-29T01:11:47.193Z,1.80
2022-12-29T01:14:15.199Z,1.80
2022-12-29T01:16:44.707Z,1.80
2022-12-29T01:19:12.877Z,1.80
2022-12-29T01:21:40.868Z,1.90
2022-12-29T01:24:09.048Z,1.90
2022-12-29T01:26:37.209Z,1.90
2022-12-29T01:29:05.202Z,1.90
2022-12-29T01:31:33.474Z,1.90
2022-12-29T01:34:03.139Z,1.90
2022-12-29T01:36:31.279Z,1.90
2022-12-29T01:38:59.366Z,1.90
2022-12-29T01:41:27.754Z,1.90
2022-12-29T01:43:58.123Z,1.90
2022-12-29T01:46:29.342Z,1.90
2022-12-29T01:49:06.951Z,1.90
2022-12-29T01:51:38.970Z,1.90
2022-12-29T01:54:13.669Z,1.90
2022-12-29T01:56:41.853Z,1.90
2022-12-29T01:59:18.069Z,1.90
2022-12-29T02:01:46.951Z,1.90
2022-12-29T02:04:16.779Z,1.90
2022-12-29T02:06:51.802Z,1.90
2022-12-29T02:09:20.361Z,1.90
2022-12-29T02:11:49.335Z,1.90
2022-12-29T02:14:17.322Z,1.90
2022-12-29T02:17:03.120Z,2.00
2022-12-29T02:20:09.325Z,2.00
2022-12-29T02:22:47.467Z,2.00
2022-12-29T02:25:51.343Z,2.00
2022-12-29T02:28:49.538Z,2.00
2022-12-29T02:31:24.771Z,2.00
2022-12-29T02:34:02.789Z,2.00
2022-12-29T02:36:42.357Z,2.00
2022-12-29T02:39:17.513Z,2.00
2022-12-29T02:41:57.891Z,2.00
2022-12-29T02:44:34.477Z,2.00
2022-12-29T02:47:11.789Z,2.00
2022-12-29T02:49:49.110Z,2.00
2022-12-29T02:52:22.359Z,2.00
2022-12-29T02:54:49.896Z,2.10
2022-12-29T02:57:31.435Z,2.00
2022-12-29T03:00:05.040Z,2.00
2022-12-29T03:02:48.888Z,2.10
2022-12-29T03:05:28.071Z,2.10
2022-12-29T03:08:06.488Z,2.10
2022-12-29T03:10:48.036Z,2.10
2022-12-29T03:13:43.350Z,2.10
2022-12-29T03:16:22.611Z,2.10
2022-12-29T03:18:59.076Z,2.10
2022-12-29T03:21:51.605Z,2.10
2022-12-29T03:24:22.750Z,2.10
2022-12-29T03:26:53.364Z,2.10
2022-12-29T03:29:22.629Z,2.10
2022-12-29T03:31:52.969Z,2.10
2022-12-29T03:34:23.867Z,2.10
2022-12-29T03:36:56.302Z,2.10
2022-12-29T03:39:26.909Z,2.10
2022-12-29T03:42:03.450Z,2.10
2022-12-29T03:44:37.150Z,2.10
2022-12-29T03:47:05.544Z,2.10
2022-12-29T03:49:35.244Z,2.10
2022-12-29T03:52:03.246Z,2.10
2022-12-29T03:54:32.021Z,2.10
2022-12-29T03:57:00.383Z,2.10
2022-12-29T03:59:28.346Z,2.10
2022-12-29T04:01:56.420Z,2.10
2022-12-29T04:04:24.439Z,2.10
2022-12-29T04:06:53.794Z,2.10
2022-12-29T04:09:21.850Z,2.10
2022-12-29T04:11:49.830Z,2.10
2022-12-29T04:14:18.358Z,2.10
2022-12-29T04:16:46.397Z,2.10
2022-12-29T04:19:15.064Z,2.10
2022-12-29T04:21:43.064Z,2.10
2022-12-29T04:24:13.883Z,2.10
2022-12-29T04:26:41.989Z,2.10
2022-12-29T04:29:10.025Z,2.00
2022-12-29T04:31:38.070Z,2.10
2022-12-29T04:34:06.038Z,2.00
2022-12-29T04:36:34.020Z,2.00
2022-12-29T04:39:02.673Z,2.00
2022-12-29T04:41:32.034Z,2.00
2022-12-29T04:44:00.040Z,2.00
2022-12-29T04:46:28.067Z,2.00
2022-12-29T04:48:56.142Z,2.00
2022-12-29T04:51:24.210Z,2.00
2022-12-29T04:53:52.205Z,2.00
2022-12-29T04:56:20.703Z,2.00
2022-12-29T04:58:50.081Z,2.00
2022-12-29T05:01:18.471Z,1.90
2022-12-29T05:03:46.542Z,1.90
2022-12-29T05:06:14.544Z,1.90
2022-12-29T05:08:42.514Z,1.90
2022-12-29T05:11:10.500Z,1.90
2022-12-29T05:13:38.505Z,1.90
2022-12-29T05:16:08.537Z,1.90
2022-12-29T05:18:36.720Z,1.90
2022-12-29T05:21:04.935Z,1.80
2022-12-29T05:23:33.075Z,1.90
2022-12-29T05:26:01.683Z,1.80
2022-12-29T05:28:29.737Z,1.90
2022-12-29T05:30:57.929Z,1.90
2022-12-29T05:33:27.518Z,1.80
2022-12-29T05:35:55.550Z,1.80
2022-12-29T05:38:24.219Z,1.90
2022-12-29T05:40:52.235Z,1.80
2022-12-29T05:43:20.193Z,1.90
2022-12-29T05:45:50.825Z,1.90
2022-12-29T05:48:18.869Z,1.90
2022-12-29T05:50:50.702Z,1.80
2022-12-29T05:53:19.307Z,1.80
2022-12-29T05:55:49.367Z,1.80
2022-12-29T05:58:17.924Z,1.90
2022-12-29T06:00:46.443Z,1.90
2022-12-29T06:03:14.734Z,1.90
2022-12-29T06:05:43.008Z,1.90
2022-12-29T06:08:12.414Z,1.90
2022-12-29T06:10:40.552Z,1.90
2022-12-29T06:13:08.602Z,1.90
2022-12-29T06:15:37.118Z,1.90
2022-12-29T06:18:05.464Z,1.90
2022-12-29T06:20:33.525Z,1.90
2022-12-29T06:23:01.560Z,1.90
2022-12-29T06:25:33.304Z,1.90
2022-12-29T06:28:01.500Z,1.90
2022-12-29T06:30:29.608Z,1.90
2022-12-29T06:32:57.645Z,1.90
2022-12-29T06:35:25.734Z,1.90
2022-12-29T06:37:53.952Z,1.90
2022-12-29T06:40:22.690Z,1.90
2022-12-29T06:42:52.188Z,1.90
2022-12-29T06:45:20.406Z,1.90
2022-12-29T06:47:48.510Z,1.90
2022-12-29T06:50:16.680Z,1.90
2022-12-29T06:52:45.464Z,1.90
2022-12-29T06:55:13.603Z,1.90
2022-12-29T06:57:41.727Z,1.90
2022-12-29T07:00:12.546Z,2.00
2022-12-29T07:02:40.760Z,2.00
2022-12-29T07:05:10.434Z,2.00
2022-12-29T07:07:38.547Z,2.00
2022-12-29T07:10:07.328Z,2.00
2022-12-29T07:12:36.989Z,2.00
2022-12-29T07:15:05.545Z,2.00
2022-12-29T07:17:35.073Z,2.10
2022-12-29T07:20:03.243Z,2.10
2022-12-29T07:22:31.474Z,2.10
2022-12-29T07:24:59.669Z,2.10
2022-12-29T07:27:27.809Z,2.10
2022-12-29T07:29:56.275Z,2.10
2022-12-29T07:32:24.371Z,2.20
2022-12-29T07:34:53.944Z,2.20
2022-12-29T07:37:22.049Z,2.20
2022-12-29T07:39:50.168Z,2.30
2022-12-29T07:42:18.505Z,2.30
2022-12-29T07:44:46.635Z,2.30
2022-12-29T07:47:14.825Z,2.30
2022-12-29T07:49:43.135Z,2.40
2022-12-29T07:52:12.628Z,2.40
2022-12-29T07:54:40.838Z,2.50
2022-12-29T07:57:08.954Z,2.50
2022-12-29T07:59:37.120Z,2.60
2022-12-29T08:02:05.379Z,2.60
2022-12-29T08:04:33.512Z,2.70
2022-12-29T08:07:01.758Z,2.80
2022-12-29T08:09:31.121Z,3.00
2022-12-29T08:11:59.104Z,3.30
2022-12-29T08:14:27.145Z,3.50
2022-12-29T08:16:59.583Z,3.70
2022-12-29T08:19:27.654Z,3.90
2022-12-29T08:21:55.865Z,4.10
2022-12-29T08:24:23.891Z,4.40
2022-12-29T08:26:53.509Z,4.90
2022-12-29T08:29:22.422Z,5.10
2022-12-29T08:31:50.559Z,5.50
2022-12-29T08:34:20.755Z,5.90
2022-12-29T08:36:48.941Z,6.30
2022-12-29T08:39:17.043Z,6.70
2022-12-29T08:41:45.038Z,7.20
2022-12-29T08:44:14.458Z,7.40
2022-12-29T08:46:42.551Z,7.70
2022-12-29T08:49:10.661Z,8.00
2022-12-29T08:51:41.741Z,8.10
2022-12-29T08:54:09.803Z,8.30
2022-12-29T08:56:37.839Z,8.40
2022-12-29T08:59:05.883Z,8.80
2022-12-29T09:01:37.389Z,9.00
2022-12-29T09:04:15.344Z,9.30
2022-12-29T09:06:44.326Z,9.40
2022-12-29T09:09:12.743Z,9.60
2022-12-29T09:11:40.827Z,9.80
2022-12-29T09:14:09.002Z,10.00
2022-12-29T09:16:55.075Z,10.00
2022-12-29T09:19:23.106Z,10.10
2022-12-29T09:21:51.625Z,10.20
2022-12-29T09:24:19.633Z,10.40
2022-12-29T09:26:47.666Z,10.60
2022-12-29T09:29:15.830Z,10.70
2022-12-29T09:31:45.326Z,10.90
2022-12-29T09:34:13.430Z,11.10
2022-12-29T09:36:41.839Z,11.30
2022-12-29T09:39:10.306Z,11.60
2022-12-29T09:41:45.200Z,11.70
2022-12-29T09:44:21.646Z,11.50
2022-12-29T09:46:53.265Z,11.30
2022-12-29T09:49:28.102Z,11.00
2022-12-29T09:51:59.500Z,10.80
2022-12-29T09:54:50.821Z,10.70
2022-12-29T09:57:26.793Z,10.80
2022-12-29T09:59:58.560Z,10.90
2022-12-29T10:02:38.835Z,11.10
2022-12-29T10:05:19.909Z,11.20
2022-12-29T10:07:54.213Z,11.40
2022-12-29T10:10:37.207Z,11.50
2022-12-29T10:13:23.896Z,11.50
2022-12-29T10:16:02.520Z,11.40
2022-12-29T10:18:59.516Z,11.30
2022-12-29T10:21:39.793Z,11.10
2022-12-29T10:24:12.421Z,11.00
2022-12-29T10:26:43.044Z,10.80
2022-12-29T10:29:18.191Z,10.60
2022-12-29T10:31:49.045Z,10.50
2022-12-29T10:34:24.182Z,10.40
2022-12-29T10:36:57.686Z,10.20
2022-12-29T10:39:33.854Z,10.20
2022-12-29T10:42:09.961Z,10.10
2022-12-29T10:44:40.638Z,10.10
2022-12-29T10:47:14.013Z,10.00
2022-12-29T10:49:46.805Z,10.00
2022-12-29T10:52:16.752Z,10.00
2022-12-29T10:57:10.555Z,9.90
2022-12-29T10:59:39.497Z,9.90
2022-12-29T11:02:42.286Z,9.90
2022-12-29T11:05:21.844Z,9.90
2022-12-29T11:07:50.611Z,9.90
2022-12-29T11:10:22.029Z,9.90
2022-12-29T11:13:04.330Z,9.90
2022-12-29T11:15:41.822Z,9.90
2022-12-29T11:18:22.556Z,9.90
2022-12-29T11:20:52.647Z,9.90
2022-12-29T11:23:27.821Z,9.90
2022-12-29T11:26:18.660Z,9.80
2022-12-29T11:28:49.912Z,9.80
2022-12-29T11:31:21.266Z,9.70
2022-12-29T11:33:49.326Z,9.70
2022-12-29T11:36:21.834Z,9.60
2022-12-29T11:38:52.163Z,9.60
2022-12-29T11:41:25.873Z,9.60
2022-12-29T11:43:58.059Z,9.60
2022-12-29T11:46:29.040Z,9.60
2022-12-29T11:49:01.742Z,9.60
2022-12-29T11:51:36.752Z,9.60
2022-12-29T11:54:06.854Z,9.70
2022-12-29T11:56:40.823Z,9.70
2022-12-29T11:59:38.904Z,9.70
2022-12-29T12:02:27.227Z,9.70
2022-12-29T12:05:03.427Z,9.70
2022-12-29T12:07:41.281Z,9.70
2022-12-29T12:10:18.211Z,9.60
2022-12-29T12:12:52.179Z,9.60
2022-12-29T12:15:25.954Z,9.50
2022-12-29T12:18:00.957Z,9.50
2022-12-29T12:20:40.219Z,9.50
2022-12-29T12:23:19.749Z,9.50
2022-12-29T12:25:55.339Z,9.50
2022-12-29T12:28:36.902Z,9.50
2022-12-29T12:31:20.173Z,9.50
2022-12-29T12:33:53.509Z,9.50
2022-12-29T12:36:32.383Z,9.50
2022-12-29T12:39:07.454Z,9.50
2022-12-29T12:41:46.860Z,9.50
2022-12-29T12:44:22.586Z,9.50
2022-12-29T12:47:37.309Z,9.50
2022-12-29T12:50:34.175Z,9.60
2022-12-29T12:53:29.781Z,9.60
2022-12-29T12:56:32.301Z,9.60
2022-12-29T12:59:10.131Z,9.60
2022-12-29T13:01:47.926Z,9.60
2022-12-29T13:04:51.576Z,9.60
2022-12-29T13:07:31.257Z,9.60
2022-12-29T13:10:19.400Z,9.60
2022-12-29T13:12:55.123Z,9.60
2022-12-29T13:15:39.787Z,9.60
2022-12-29T13:18:20.568Z,9.60
2022-12-29T13:20:56.276Z,9.70
2022-12-29T13:23:32.374Z,9.70
2022-12-29T13:26:08.545Z,9.70
2022-12-29T13:28:44.434Z,9.70
2022-12-29T13:31:20.359Z,9.70
2022-12-29T13:33:57.576Z,9.70
2022-12-29T13:36:32.549Z,9.60
2022-12-29T13:39:07.015Z,9.60
2022-12-29T13:41:39.364Z,9.60
2022-12-29T13:44:08.872Z,9.60
2022-12-29T13:46:41.172Z,9.50
2022-12-29T13:49:14.261Z,9.50
2022-12-29T13:51:49.710Z,9.40
2022-12-29T13:54:29.749Z,9.40
2022-12-29T13:57:07.897Z,9.30
2022-12-29T13:59:44.874Z,9.30
2022-12-29T14:02:26.520Z,9.30
2022-12-29T14:05:02.349Z,9.40
2022-12-29T14:07:38.381Z,9.30
2022-12-29T14:10:07.482Z,9.30
2022-12-29T14:12:40.299Z,9.20
2022-12-29T14:15:22.344Z,9.10
2022-12-29T14:18:06.601Z,9.10
2022-12-29T14:20:36.072Z,9.10
2022-12-29T14:23:29.148Z,9.00
2022-12-29T14:26:11.360Z,9.00
2022-12-29T14:28:43.269Z,8.90
2022-12-29T14:31:41.635Z,8.80
2022-12-29T14:34:32.946Z,8.80
2022-12-29T14:37:03.231Z,8.80
2022-12-29T14:39:38.417Z,8.70
2022-12-29T14:42:09.193Z,8.70
2022-12-29T14:44:49.032Z,8.60
2022-12-29T14:47:24.724Z,8.60
2022-12-29T14:49:53.397Z,8.50
2022-12-29T14:52:24.063Z,8.50
2022-12-29T14:54:57.351Z,8.50
2022-12-29T14:57:31.777Z,8.50
2022-12-29T15:00:07.429Z,8.50
2022-12-29T15:02:40.663Z,8.70
2022-12-29T15:05:26.677Z,8.80
2022-12-29T15:07:57.483Z,8.80
2022-12-29T15:10:33.369Z,8.60
2022-12-29T15:13:06.676Z,8.50
2022-12-29T15:15:40.124Z,8.40
2022-12-29T15:18:25.724Z,8.40
2022-12-29T15:20:56.954Z,8.30
2022-12-29T15:23:25.203Z,8.20
2022-12-29T15:25:57.982Z,8.20
2022-12-29T15:28:27.319Z,8.10
2022-12-29T15:30:57.381Z,8.10
2022-12-29T15:33:28.855Z,8.00
2022-12-29T15:35:59.146Z,7.90
2022-12-29T15:38:37.105Z,7.90
2022-12-29T15:41:31.622Z,7.80
2022-12-29T15:44:17.087Z,7.70
2022-12-29T15:46:45.564Z,7.70
2022-12-29T15:49:20.897Z,7.60
2022-12-29T15:51:49.069Z,7.50
2022-12-29T15:54:19.682Z,7.50
2022-12-29T15:56:50.849Z,7.40
2022-12-29T15:59:27.080Z,7.40
2022-12-29T16:01:58.591Z,7.30
2022-12-29T16:04:30.886Z,7.30
2022-12-29T16:07:02.031Z,7.20
2022-12-29T16:09:35.970Z,7.20
2022-12-29T16:12:08.996Z,7.20
2022-12-29T16:14:44.508Z,7.10
2022-12-29T16:17:20.328Z,7.10
2022-12-29T16:19:53.445Z,7.10
2022-12-29T16:22:28.968Z,7.00
2022-12-29T16:25:04.827Z,7.00
2022-12-29T16:27:44.159Z,6.90
2022-12-29T16:30:27.818Z,6.90
2022-12-29T16:33:01.209Z,6.90
2022-12-29T16:35:31.110Z,6.80
2022-12-29T16:38:16.490Z,6.80
2022-12-29T16:40:53.113Z,6.80
2022-12-29T16:43:25.213Z,6.70
2022-12-29T16:46:20.541Z,6.70
2022-12-29T16:48:51.402Z,6.60
2022-12-29T16:51:32.672Z,6.60
2022-12-29T16:54:04.746Z,6.60
2022-12-29T16:56:35.623Z,6.50
2022-12-29T16:59:08.885Z,6.50
2022-12-29T17:01:41.317Z,6.50
2022-12-29T17:04:11.969Z,6.50
2022-12-29T17:06:40.413Z,6.40
2022-12-29T17:09:21.608Z,6.40
2022-12-29T17:12:10.110Z,6.40
2022-12-29T17:14:43.824Z,6.30
2022-12-29T17:17:17.155Z,6.30
2022-12-29T17:19:49.188Z,6.20
2022-12-29T17:22:19.538Z,6.30
2022-12-29T17:24:47.600Z,6.20
2022-12-29T17:27:24.629Z,6.20
2022-12-29T17:29:59.560Z,6.30
2022-12-29T17:32:28.071Z,6.20
2022-12-29T17:34:56.167Z,6.20
2022-12-29T17:37:35.988Z,6.20
2022-12-29T17:40:05.142Z,6.20
2022-12-29T17:42:34.793Z,6.20
2022-12-29T17:45:04.568Z,6.10
2022-12-29T17:47:32.702Z,6.10
2022-12-29T17:50:01.628Z,6.10
2022-12-29T17:52:29.724Z,6.10
2022-12-29T17:55:01.043Z,6.00
2022-12-29T17:57:29.079Z,6.00
2022-12-29T17:59:57.656Z,6.00
2022-12-29T18:02:31.043Z,6.00
2022-12-29T18:05:00.273Z,5.90
2022-12-29T18:07:35.585Z,5.90
2022-12-29T18:10:04.263Z,5.80
2022-12-29T18:12:36.954Z,5.80
2022-12-29T18:15:05.809Z,5.80
2022-12-29T18:17:35.209Z,5.80
2022-12-29T18:20:03.234Z,5.80
2022-12-29T18:22:32.160Z,5.70
2022-12-29T18:25:02.045Z,5.70
2022-12-29T18:27:30.616Z,5.70
2022-12-29T18:29:58.956Z,5.70
2022-12-29T18:32:28.220Z,5.60
2022-12-29T18:34:57.574Z,5.60
2022-12-29T18:37:25.557Z,5.60
2022-12-29T18:39:53.592Z,5.60
2022-12-29T18:42:22.335Z,5.60
2022-12-29T18:44:50.558Z,5.60
2022-12-29T18:47:18.658Z,5.50
2022-12-29T18:49:46.736Z,5.50
2022-12-29T18:52:16.052Z,5.50
2022-12-29T18:54:44.023Z,5.40
2022-12-29T18:57:12.069Z,5.40
2022-12-29T18:59:42.541Z,5.40
2022-12-29T19:02:17.872Z,5.30
2022-12-29T19:04:48.923Z,5.30
2022-12-29T19:07:22.217Z,5.30
2022-12-29T19:09:50.279Z,5.30
2022-12-29T19:12:23.755Z,5.30
2022-12-29T19:14:56.188Z,5.30
2022-12-29T19:17:24.228Z,5.30
2022-12-29T19:19:52.291Z,5.30
2022-12-29T19:22:21.705Z,5.30
2022-12-29T19:24:53.619Z,5.30
2022-12-29T19:27:24.466Z,5.30
2022-12-29T19:29:52.501Z,5.30
2022-12-29T19:32:23.519Z,5.30
2022-12-29T19:34:51.579Z,5.20
2022-12-29T19:37:21.031Z,5.20
2022-12-29T19:39:49.333Z,5.20
2022-12-29T19:42:17.411Z,5.20
2022-12-29T19:44:45.915Z,5.20
2022-12-29T19:47:14.384Z,5.20
2022-12-29T19:49:43.393Z,5.20
2022-12-29T19:52:11.461Z,5.20
2022-12-29T19:54:43.244Z,5.30
2022-12-29T19:57:11.237Z,5.30
2022-12-29T19:59:39.330Z,5.30
2022-12-29T20:02:08.134Z,5.30
2022-12-29T20:04:36.307Z,5.20
2022-12-29T20:07:04.355Z,5.20
2022-12-29T20:09:32.723Z,5.20
2022-12-29T20:12:02.252Z,5.20
2022-12-29T20:14:30.342Z,5.20
2022-12-29T20:17:11.121Z,5.20
2022-12-29T20:19:40.280Z,5.20
2022-12-29T20:22:10.480Z,5.20
2022-12-29T20:24:43.880Z,5.20
2022-12-29T20:27:16.478Z,5.10
2022-12-29T20:29:44.722Z,5.10
2022-12-29T20:32:15.024Z,5.10
2022-12-29T20:34:44.348Z,5.10
2022-12-29T20:37:13.426Z,5.10
2022-12-29T20:39:42.888Z,5.00
2022-12-29T20:42:10.914Z,5.00
2022-12-29T20:44:40.344Z,4.90
2022-12-29T20:47:08.754Z,4.90
2022-12-29T20:49:40.329Z,4.90
2022-12-29T20:52:12.013Z,4.90
2022-12-29T20:54:40.247Z,4.90
2022-12-29T20:57:08.681Z,4.90
2022-12-29T20:59:39.783Z,4.90
2022-12-29T21:02:20.507Z,4.90
2022-12-29T21:07:41.770Z,4.90
2022-12-29T21:10:10.100Z,4.90
2022-12-29T21:12:38.194Z,4.80
2022-12-29T21:15:07.054Z,4.80
2022-12-29T21:17:36.537Z,4.80
2022-12-29T21:20:05.207Z,4.80
2022-12-29T21:22:33.329Z,4.80
2022-12-29T21:25:01.477Z,4.70
2022-12-29T21:27:29.964Z,4.70
2022-12-29T21:29:58.840Z,4.70
2022-12-29T21:32:27.808Z,4.60
2022-12-29T21:34:59.374Z,4.60
2022-12-29T21:37:27.719Z,4.60
2022-12-29T21:39:55.855Z,4.60
2022-12-29T21:42:23.857Z,4.60
2022-12-29T21:45:23.753Z,4.50
2022-12-29T21:48:09.751Z,4.50
2022-12-29T21:51:02.205Z,4.50
2022-12-29T21:53:39.651Z,4.50
2022-12-29T21:56:09.476Z,4.50
2022-12-29T21:58:55.282Z,4.50
2022-12-29T22:01:41.493Z,4.40
2022-12-29T22:04:29.427Z,4.40
2022-12-29T22:07:17.813Z,4.40
2022-12-29T22:10:03.325Z,4.40
2022-12-29T22:12:49.067Z,4.30
2022-12-29T22:15:17.333Z,4.30
2022-12-29T22:17:48.747Z,4.30
2022-12-29T22:20:17.589Z,4.30
2022-12-29T22:22:47.302Z,4.30
2022-12-29T22:25:15.736Z,4.30
2022-12-29T22:27:44.707Z,4.30
2022-12-29T22:30:15.882Z,4.30
2022-12-29T22:32:44.340Z,4.30
2022-12-29T22:35:13.362Z,4.20
2022-12-29T22:37:44.403Z,4.20
2022-12-29T22:40:14.512Z,4.20
2022-12-29T22:42:42.709Z,4.20
2022-12-29T22:45:11.406Z,4.20
2022-12-29T22:47:40.110Z,4.10
2022-12-29T22:50:08.726Z,4.10
2022-12-29T22:52:37.092Z,4.10
2022-12-29T22:55:07.227Z,4.10
2022-12-29T22:57:36.896Z,4.10
2022-12-29T23:00:09.137Z,4.10
2022-12-29T23:02:37.413Z,4.10
2022-12-29T23:05:06.452Z,4.10
2022-12-29T23:07:36.366Z,4.10
2022-12-29T23:10:05.578Z,4.10
2022-12-29T23:12:33.744Z,4.10
2022-12-29T23:15:03.250Z,4.10
2022-12-29T23:17:31.329Z,4.10
2022-12-29T23:19:59.376Z,4.00
2022-12-29T23:22:27.426Z,4.00
2022-12-29T23:24:55.673Z,4.00
2022-12-29T23:27:23.758Z,4.00
2022-12-29T23:29:51.814Z,4.10
2022-12-29T23:32:21.915Z,4.00
2022-12-29T23:34:49.902Z,4.00
2022-12-29T23:37:20.045Z,4.00
2022-12-29T23:39:48.010Z,4.00
2022-12-29T23:42:16.020Z,4.00
2022-12-29T23:44:44.026Z,3.90
2022-12-29T23:47:12.058Z,4.00
2022-12-29T23:49:41.426Z,4.00
2022-12-29T23:52:09.480Z,4.00
2022-12-29T23:54:37.894Z,3.90
2022-12-29T23:57:05.988Z,3.90
2022-12-29T23:59:34.030Z,3.90
